createdAt,value
2023-10-26T00:00:40.702Z,13.18
2023-10-26T00:03:08.568Z,13.22
2023-10-26T00:05:35.189Z,12.94
2023-10-26T00:08:01.742Z,12.97
2023-10-26T00:10:28.466Z,13.00
2023-10-26T00:12:54.954Z,13.07
2023-10-26T00:15:21.507Z,13.17
2023-10-26T00:17:48.057Z,13.19
2023-10-26T00:20:14.893Z,13.21
2023-10-26T00:22:41.336Z,13.25
2023-10-26T00:25:08.960Z,13.22
2023-10-26T00:27:41.566Z,13.23
2023-10-26T00:30:10.681Z,13.39
2023-10-26T00:32:37.460Z,13.19
2023-10-26T00:35:05.109Z,13.28
2023-10-26T00:37:33.437Z,13.42
2023-10-26T00:39:59.993Z,13.31
2023-10-26T00:42:27.056Z,13.20
2023-10-26T00:44:57.588Z,13.25
2023-10-26T00:47:26.872Z,13.06
2023-10-26T00:49:57.318Z,12.96
2023-10-26T00:52:24.384Z,12.98
2023-10-26T00:54:52.948Z,13.04
2023-10-26T00:57:22.483Z,13.26
2023-10-26T00:59:50.175Z,13.47
2023-10-26T01:02:17.588Z,13.22
2023-10-26T01:04:45.112Z,13.21
2023-10-26T01:07:11.747Z,13.29
2023-10-26T01:09:38.512Z,13.31
2023-10-26T01:12:05.810Z,13.10
2023-10-26T01:14:33.668Z,13.11
2023-10-26T01:17:01.447Z,12.84
2023-10-26T01:19:44.286Z,12.95
2023-10-26T01:22:11.382Z,13.14
2023-10-26T01:24:38.354Z,12.95
2023-10-26T01:27:05.714Z,12.97
2023-10-26T01:29:33.082Z,12.92
2023-10-26T01:32:01.526Z,12.78
2023-10-26T01:34:28.088Z,12.83
2023-10-26T01:36:56.587Z,12.81
2023-10-26T01:39:23.160Z,12.98
2023-10-26T01:41:49.773Z,12.93
2023-10-26T01:44:19.819Z,12.83
2023-10-26T01:46:46.597Z,12.57
2023-10-26T01:49:13.140Z,12.77
2023-10-26T01:51:39.703Z,12.85
2023-10-26T01:54:06.359Z,12.85
2023-10-26T01:56:32.862Z,12.64
2023-10-26T01:58:59.551Z,12.88
2023-10-26T02:01:25.995Z,12.71
2023-10-26T02:03:55.298Z,12.50
2023-10-26T02:06:22.141Z,12.61
2023-10-26T02:08:49.435Z,12.75
2023-10-26T02:11:15.966Z,12.80
2023-10-26T02:13:42.413Z,12.94
2023-10-26T02:16:09.008Z,12.67
2023-10-26T02:18:36.025Z,12.78
2023-10-26T02:21:03.066Z,12.80
2023-10-26T02:23:30.040Z,12.95
2023-10-26T02:25:57.354Z,12.82
2023-10-26T02:28:24.664Z,12.96
2023-10-26T02:30:51.432Z,12.68
2023-10-26T02:33:17.958Z,12.86
2023-10-26T02:35:44.478Z,12.62
2023-10-26T02:38:11.062Z,12.64
2023-10-26T02:40:38.040Z,12.74
2023-10-26T02:43:06.466Z,12.81
2023-10-26T02:45:33.090Z,12.92
2023-10-26T02:48:00.825Z,13.04
2023-10-26T02:50:36.358Z,13.12
2023-10-26T02:53:03.460Z,13.15
2023-10-26T02:55:29.961Z,13.00
2023-10-26T02:57:58.100Z,12.86
2023-10-26T03:00:28.142Z,13.11
2023-10-26T03:02:56.950Z,13.18
2023-10-26T03:05:23.488Z,13.01
2023-10-26T03:07:49.924Z,13.21
2023-10-26T03:10:18.241Z,13.12
2023-10-26T03:12:48.066Z,12.84
2023-10-26T03:15:14.651Z,12.97
2023-10-26T03:20:30.636Z,12.82
2023-10-26T03:22:57.115Z,12.74
2023-10-26T03:25:23.635Z,12.71
2023-10-26T03:27:50.326Z,12.81
2023-10-26T03:30:18.913Z,12.72
2023-10-26T03:32:46.456Z,12.53
2023-10-26T03:35:13.239Z,12.83
2023-10-26T03:37:39.729Z,12.32
2023-10-26T03:40:06.958Z,12.50
2023-10-26T03:42:33.725Z,12.73
2023-10-26T03:45:01.823Z,12.80
2023-10-26T03:47:30.621Z,12.88
2023-10-26T03:50:08.417Z,13.11
2023-10-26T03:52:35.186Z,13.25
2023-10-26T03:55:01.743Z,13.23
2023-10-26T03:57:29.275Z,12.79
2023-10-26T03:59:57.565Z,13.14
2023-10-26T04:02:24.170Z,13.28
2023-10-26T04:04:51.623Z,13.26
2023-10-26T04:07:19.629Z,13.32
2023-10-26T04:09:46.609Z,13.59
2023-10-26T04:12:13.430Z,13.66
2023-10-26T04:14:42.566Z,13.54
2023-10-26T04:17:09.419Z,13.48
2023-10-26T04:19:35.987Z,13.48
2023-10-26T04:22:03.347Z,13.68
2023-10-26T04:24:30.563Z,13.52
2023-10-26T04:26:57.111Z,13.43
2023-10-26T04:29:23.910Z,13.59
2023-10-26T04:31:50.523Z,13.48
2023-10-26T04:34:17.909Z,13.55
2023-10-26T04:36:44.900Z,13.33
2023-10-26T04:39:14.128Z,13.33
2023-10-26T04:41:43.697Z,13.29
2023-10-26T04:44:10.609Z,13.50
2023-10-26T04:46:37.170Z,13.48
2023-10-26T04:49:04.974Z,13.72
2023-10-26T04:51:33.523Z,13.37
2023-10-26T04:54:00.148Z,13.41
2023-10-26T04:56:26.609Z,13.35
2023-10-26T04:58:55.725Z,13.22
2023-10-26T05:01:22.267Z,13.21
2023-10-26T05:03:52.030Z,13.01
2023-10-26T05:06:18.957Z,13.05
2023-10-26T05:08:52.061Z,13.01
2023-10-26T05:11:21.910Z,12.89
2023-10-26T05:13:49.974Z,13.16
2023-10-26T05:18:58.801Z,13.42
2023-10-26T05:21:25.283Z,12.97
2023-10-26T05:23:52.086Z,13.11
2023-10-26T05:26:18.754Z,13.01
2023-10-26T05:28:45.975Z,13.10
2023-10-26T05:31:12.527Z,12.93
2023-10-26T05:33:40.633Z,13.14
2023-10-26T05:36:07.675Z,13.51
2023-10-26T05:38:34.131Z,13.43
2023-10-26T05:41:00.982Z,13.32
2023-10-26T05:43:27.505Z,13.62
2023-10-26T05:45:58.387Z,13.37
2023-10-26T05:48:25.261Z,13.21
2023-10-26T05:50:51.854Z,13.21
2023-10-26T05:53:18.551Z,13.52
2023-10-26T05:55:55.637Z,13.22
2023-10-26T05:58:22.100Z,13.14
2023-10-26T06:00:48.571Z,13.34
2023-10-26T06:03:15.241Z,13.15
2023-10-26T06:05:41.670Z,13.10
2023-10-26T06:08:08.112Z,13.21
2023-10-26T06:10:35.785Z,13.33
2023-10-26T06:13:04.036Z,13.37
2023-10-26T06:15:30.498Z,13.39
2023-10-26T06:17:57.055Z,13.20
2023-10-26T06:20:28.789Z,13.15
2023-10-26T06:22:55.962Z,13.45
2023-10-26T06:25:22.403Z,13.38
2023-10-26T06:27:49.048Z,13.59
2023-10-26T06:30:18.608Z,13.49
2023-10-26T06:32:45.320Z,13.71
2023-10-26T06:35:11.843Z,13.41
2023-10-26T06:37:38.636Z,13.59
2023-10-26T06:40:08.170Z,13.39
2023-10-26T06:42:34.774Z,13.24
2023-10-26T06:45:01.425Z,13.22
2023-10-26T06:47:27.948Z,12.84
2023-10-26T06:49:54.455Z,13.07
2023-10-26T06:52:20.926Z,12.84
2023-10-26T06:54:49.542Z,12.90
2023-10-26T06:57:16.579Z,12.57
2023-10-26T06:59:43.243Z,12.48
2023-10-26T07:02:13.792Z,12.74
2023-10-26T07:04:40.445Z,12.53
2023-10-26T07:07:07.252Z,12.76
2023-10-26T07:09:33.797Z,12.67
2023-10-26T07:12:00.466Z,12.78
2023-10-26T07:14:27.033Z,12.96
2023-10-26T07:16:53.499Z,13.29
2023-10-26T07:19:19.956Z,13.13
2023-10-26T07:21:46.448Z,13.04
2023-10-26T07:24:13.084Z,13.22
2023-10-26T07:26:39.590Z,13.00
2023-10-26T07:29:06.226Z,13.15
2023-10-26T07:31:32.740Z,12.92
2023-10-26T07:33:59.234Z,12.75
2023-10-26T07:36:27.805Z,12.78
2023-10-26T07:39:45.879Z,12.71
2023-10-26T07:42:07.132Z,12.62
2023-10-26T07:44:32.292Z,12.87
2023-10-26T07:46:58.770Z,12.96
2023-10-26T07:49:25.398Z,13.06
2023-10-26T07:51:52.350Z,12.97
2023-10-26T07:54:19.170Z,12.90
2023-10-26T07:56:45.650Z,12.68
2023-10-26T07:59:12.172Z,12.80
2023-10-26T08:01:38.654Z,12.79
2023-10-26T08:04:05.425Z,13.03
2023-10-26T08:06:31.885Z,12.94
2023-10-26T08:08:59.837Z,13.00
2023-10-26T08:11:26.251Z,13.26
2023-10-26T08:13:53.124Z,13.52
2023-10-26T08:16:40.988Z,13.23
2023-10-26T08:19:06.690Z,13.01
2023-10-26T08:21:35.295Z,13.09
2023-10-26T08:24:02.006Z,13.16
2023-10-26T08:26:28.526Z,13.40
2023-10-26T08:29:10.527Z,13.48
2023-10-26T08:31:42.085Z,13.16
2023-10-26T08:34:10.154Z,13.01
2023-10-26T08:36:37.444Z,13.30
2023-10-26T08:39:05.752Z,13.07
2023-10-26T08:41:36.885Z,13.06
2023-10-26T08:44:05.049Z,12.95
2023-10-26T08:46:32.355Z,13.29
2023-10-26T08:49:01.261Z,13.24
2023-10-26T08:51:28.778Z,13.05
2023-10-26T08:53:58.418Z,13.32
2023-10-26T08:56:25.164Z,13.25
2023-10-26T08:58:56.466Z,13.47
2023-10-26T09:01:23.231Z,13.42
2023-10-26T09:03:49.831Z,13.41
2023-10-26T09:06:16.399Z,13.62
2023-10-26T09:08:43.920Z,13.59
2023-10-26T09:11:23.650Z,13.57
2023-10-26T09:13:51.344Z,13.67
2023-10-26T09:16:17.945Z,13.43
2023-10-26T09:18:51.612Z,13.89
2023-10-26T09:21:18.708Z,14.06
2023-10-26T09:23:46.383Z,14.12
2023-10-26T09:26:13.001Z,14.26
2023-10-26T09:28:55.942Z,14.23
2023-10-26T09:31:37.899Z,14.32
2023-10-26T09:34:11.968Z,13.68
2023-10-26T09:36:39.143Z,13.81
2023-10-26T09:39:09.796Z,13.72
2023-10-26T09:41:38.343Z,13.61
2023-10-26T09:44:04.907Z,14.06
2023-10-26T09:46:33.079Z,14.15
2023-10-26T09:48:59.685Z,14.31
2023-10-26T09:51:26.216Z,14.15
2023-10-26T09:53:53.684Z,14.52
2023-10-26T09:56:24.048Z,14.00
2023-10-26T09:58:53.164Z,13.88
2023-10-26T10:01:39.113Z,13.97
2023-10-26T10:04:07.476Z,13.68
2023-10-26T10:06:54.254Z,13.47
2023-10-26T10:09:26.344Z,13.39
2023-10-26T10:12:04.926Z,13.66
2023-10-26T10:14:49.864Z,13.70
2023-10-26T10:17:17.390Z,13.74
2023-10-26T10:19:47.186Z,13.77
2023-10-26T10:22:35.598Z,13.44
2023-10-26T10:25:04.158Z,13.69
2023-10-26T10:27:32.466Z,13.62
2023-10-26T10:30:15.321Z,13.38
2023-10-26T10:32:48.085Z,13.20
2023-10-26T10:35:39.072Z,13.08
2023-10-26T10:38:14.795Z,13.16
2023-10-26T10:40:42.476Z,13.25
2023-10-26T10:43:09.862Z,13.16
2023-10-26T10:45:36.420Z,13.48
2023-10-26T10:48:05.902Z,13.33
2023-10-26T10:50:32.603Z,13.54
2023-10-26T10:52:59.121Z,13.18
2023-10-26T10:55:30.705Z,13.23
2023-10-26T10:58:04.113Z,13.27
2023-10-26T11:00:46.638Z,13.21
2023-10-26T11:03:19.002Z,13.21
2023-10-26T11:05:45.686Z,13.11
2023-10-26T11:08:12.257Z,13.06
2023-10-26T11:10:39.496Z,13.51
2023-10-26T11:13:06.435Z,13.77
2023-10-26T11:15:37.985Z,13.46
2023-10-26T11:18:06.349Z,13.82
2023-10-26T11:20:34.955Z,13.66
2023-10-26T11:23:01.807Z,13.58
2023-10-26T11:25:30.585Z,14.06
2023-10-26T11:27:57.503Z,14.00
2023-10-26T11:30:24.160Z,13.81
2023-10-26T11:32:50.807Z,13.72
2023-10-26T11:35:17.585Z,13.83
2023-10-26T11:37:49.933Z,13.65
2023-10-26T11:40:17.254Z,13.60
2023-10-26T11:42:54.706Z,13.44
2023-10-26T11:45:23.142Z,13.43
2023-10-26T11:47:55.972Z,13.55
2023-10-26T11:50:33.382Z,13.58
2023-10-26T11:53:04.350Z,13.72
2023-10-26T11:55:33.949Z,13.68
2023-10-26T11:58:02.255Z,13.76
2023-10-26T12:00:31.072Z,13.58
2023-10-26T12:02:59.092Z,13.42
2023-10-26T12:05:27.198Z,13.46
2023-10-26T12:07:55.048Z,13.74
2023-10-26T12:10:23.570Z,13.14
2023-10-26T12:12:53.320Z,13.05
2023-10-26T12:15:21.228Z,13.30
2023-10-26T12:17:49.208Z,12.91
2023-10-26T12:20:16.498Z,13.00
2023-10-26T12:22:43.053Z,12.84
2023-10-26T12:25:11.799Z,13.00
2023-10-26T12:28:21.296Z,13.32
2023-10-26T12:30:25.944Z,13.15
2023-10-26T12:32:52.497Z,12.89
2023-10-26T12:35:18.948Z,13.28
2023-10-26T12:37:45.360Z,13.27
2023-10-26T12:40:11.886Z,12.93
2023-10-26T12:42:38.376Z,13.04
2023-10-26T12:45:05.598Z,13.16
2023-10-26T12:47:32.029Z,12.92
2023-10-26T12:49:58.501Z,12.92
2023-10-26T12:52:25.012Z,13.04
2023-10-26T12:54:51.527Z,13.20
2023-10-26T12:57:18.495Z,13.26
2023-10-26T12:59:44.962Z,12.71
2023-10-26T13:02:11.379Z,12.80
2023-10-26T13:04:37.868Z,12.66
2023-10-26T13:07:04.859Z,13.05
2023-10-26T13:09:31.464Z,13.00
2023-10-26T13:11:58.023Z,12.98
2023-10-26T13:14:24.457Z,13.05
2023-10-26T13:16:57.755Z,13.02
2023-10-26T13:19:26.131Z,13.13
2023-10-26T13:21:52.873Z,13.26
2023-10-26T13:24:19.444Z,12.68
2023-10-26T13:26:46.267Z,13.28
2023-10-26T13:29:12.782Z,13.39
2023-10-26T13:31:39.281Z,13.06
2023-10-26T13:34:08.446Z,13.13
2023-10-26T13:36:35.441Z,13.01
2023-10-26T13:39:04.851Z,13.11
2023-10-26T13:41:31.312Z,12.71
2023-10-26T13:43:59.732Z,13.14
2023-10-26T13:46:26.287Z,13.38
2023-10-26T13:48:52.780Z,13.29
2023-10-26T13:51:19.527Z,13.26
2023-10-26T13:53:46.255Z,13.06
2023-10-26T13:56:13.136Z,13.16
2023-10-26T13:58:39.555Z,12.61
2023-10-26T14:01:15.551Z,12.91
2023-10-26T14:03:42.149Z,13.16
2023-10-26T14:06:09.011Z,12.78
2023-10-26T14:08:35.997Z,12.71
2023-10-26T14:11:02.487Z,12.93
2023-10-26T14:13:29.630Z,13.36
2023-10-26T14:15:56.272Z,13.23
2023-10-26T14:18:22.974Z,13.33
2023-10-26T14:20:49.473Z,13.20
2023-10-26T14:23:16.218Z,12.69
2023-10-26T14:25:43.206Z,12.75
2023-10-26T14:28:09.639Z,12.88
2023-10-26T14:30:36.103Z,12.82
2023-10-26T14:33:02.638Z,12.70
2023-10-26T14:35:30.022Z,12.83
2023-10-26T14:37:59.773Z,12.87
2023-10-26T14:40:29.607Z,12.80
2023-10-26T14:42:56.659Z,13.10
2023-10-26T14:45:25.109Z,13.06
2023-10-26T14:47:52.070Z,12.95
2023-10-26T14:50:18.534Z,12.66
2023-10-26T14:52:45.098Z,12.95
2023-10-26T14:55:11.724Z,12.77
2023-10-26T14:57:38.229Z,12.62
2023-10-26T15:00:05.046Z,12.37
2023-10-26T15:02:31.747Z,12.88
2023-10-26T15:04:58.305Z,12.87
2023-10-26T15:07:24.776Z,13.12
2023-10-26T15:10:20.214Z,13.17
2023-10-26T15:12:39.267Z,12.85
2023-10-26T15:15:06.323Z,12.59
2023-10-26T15:17:32.792Z,12.75
2023-10-26T15:19:59.299Z,12.60
2023-10-26T15:22:26.857Z,12.58
2023-10-26T15:24:53.481Z,12.82
2023-10-26T15:27:20.501Z,12.85
2023-10-26T15:29:46.964Z,12.72
2023-10-26T15:32:13.468Z,12.74
2023-10-26T15:34:40.020Z,12.43
2023-10-26T15:37:06.598Z,12.44
2023-10-26T15:39:34.417Z,12.38
2023-10-26T15:42:00.916Z,12.73
2023-10-26T15:44:27.386Z,12.67
2023-10-26T15:46:53.882Z,12.58
2023-10-26T15:49:34.843Z,12.42
2023-10-26T15:52:03.761Z,12.60
2023-10-26T15:54:30.536Z,12.68
2023-10-26T15:56:57.339Z,12.79
2023-10-26T15:59:25.608Z,12.80
2023-10-26T16:01:52.370Z,13.03
2023-10-26T16:04:18.909Z,12.74
2023-10-26T16:06:47.639Z,12.35
2023-10-26T16:09:14.406Z,12.44
2023-10-26T16:11:40.955Z,12.51
2023-10-26T16:14:07.391Z,12.25
2023-10-26T16:16:34.357Z,12.17
2023-10-26T16:19:01.110Z,12.43
2023-10-26T16:21:27.601Z,12.28
2023-10-26T16:23:54.041Z,12.32
2023-10-26T16:26:20.741Z,12.70
2023-10-26T16:28:50.382Z,12.49
2023-10-26T16:31:17.330Z,12.55
2023-10-26T16:33:45.630Z,12.36
2023-10-26T16:36:12.186Z,12.01
2023-10-26T16:38:38.636Z,11.96
2023-10-26T16:41:05.151Z,12.22
2023-10-26T16:43:31.589Z,11.81
2023-10-26T16:45:59.749Z,12.19
2023-10-26T16:48:27.645Z,12.39
2023-10-26T16:50:57.379Z,12.38
2023-10-26T16:53:31.742Z,12.63
2023-10-26T16:55:59.514Z,12.66
2023-10-26T16:58:26.044Z,12.53
2023-10-26T17:00:52.544Z,12.60
2023-10-26T17:03:19.042Z,12.37
2023-10-26T17:05:45.493Z,12.48
2023-10-26T17:08:12.630Z,12.46
2023-10-26T17:10:40.318Z,12.33
2023-10-26T17:13:09.809Z,12.37
2023-10-26T17:15:36.494Z,11.92
2023-10-26T17:18:03.899Z,11.73
2023-10-26T17:20:30.501Z,11.76
2023-10-26T17:22:56.930Z,11.92
2023-10-26T17:25:23.585Z,11.90
2023-10-26T17:27:51.790Z,12.12
2023-10-26T17:30:18.819Z,12.47
2023-10-26T17:32:47.823Z,12.03
2023-10-26T17:35:14.312Z,12.13
2023-10-26T17:37:40.782Z,12.25
2023-10-26T17:40:07.557Z,12.03
2023-10-26T17:42:34.208Z,12.09
2023-10-26T17:45:00.693Z,12.08
2023-10-26T17:47:27.549Z,12.06
2023-10-26T17:49:54.450Z,11.83
2023-10-26T17:52:23.047Z,12.07
2023-10-26T17:54:49.758Z,12.09
2023-10-26T17:57:16.222Z,11.97
2023-10-26T17:59:42.818Z,11.88
2023-10-26T18:02:09.409Z,11.86
2023-10-26T18:04:35.852Z,11.67
2023-10-26T18:07:02.345Z,11.84
2023-10-26T18:09:30.284Z,11.96
2023-10-26T18:11:58.207Z,11.90
2023-10-26T18:14:24.856Z,12.11
2023-10-26T18:16:55.385Z,12.36
2023-10-26T18:19:22.621Z,12.21
2023-10-26T18:21:49.203Z,12.32
2023-10-26T18:24:16.534Z,12.13
2023-10-26T18:26:42.981Z,11.97
2023-10-26T18:29:09.466Z,11.96
2023-10-26T18:31:36.006Z,12.07
2023-10-26T18:34:02.514Z,12.10
2023-10-26T18:36:28.993Z,11.82
2023-10-26T18:38:55.429Z,12.01
2023-10-26T18:41:25.860Z,11.64
2023-10-26T18:43:52.876Z,11.99
2023-10-26T18:46:22.659Z,11.69
2023-10-26T18:48:49.249Z,11.49
2023-10-26T18:51:17.803Z,11.67
2023-10-26T18:53:48.578Z,11.98
2023-10-26T18:56:16.181Z,11.72
2023-10-26T18:58:43.277Z,11.87
2023-10-26T19:01:09.974Z,11.62
2023-10-26T19:03:43.147Z,11.89
2023-10-26T19:06:20.137Z,12.04
2023-10-26T19:08:46.614Z,11.76
2023-10-26T19:11:13.393Z,12.25
2023-10-26T19:13:40.238Z,12.02
2023-10-26T19:16:07.251Z,11.66
2023-10-26T19:18:34.633Z,12.02
2023-10-26T19:21:01.422Z,11.97
2023-10-26T19:23:27.911Z,11.88
2023-10-26T19:25:54.742Z,11.50
2023-10-26T19:28:22.530Z,11.40
2023-10-26T19:30:50.687Z,11.71
2023-10-26T19:33:18.009Z,11.38
2023-10-26T19:35:44.434Z,11.56
2023-10-26T19:38:11.182Z,11.52
2023-10-26T19:40:37.652Z,11.37
2023-10-26T19:43:04.675Z,11.55
2023-10-26T19:45:31.302Z,11.51
2023-10-26T19:47:59.669Z,11.41
2023-10-26T19:50:26.190Z,11.65
2023-10-26T19:52:52.675Z,11.74
2023-10-26T19:55:19.233Z,11.86
2023-10-26T19:57:45.876Z,11.55
2023-10-26T20:00:16.865Z,11.43
2023-10-26T20:02:44.625Z,11.66
2023-10-26T20:05:12.682Z,11.48
2023-10-26T20:07:39.594Z,11.70
2023-10-26T20:10:06.432Z,11.49
2023-10-26T20:15:13.365Z,11.76
2023-10-26T20:17:39.958Z,11.89
2023-10-26T20:20:14.821Z,12.16
2023-10-26T20:22:43.435Z,11.83
2023-10-26T20:25:10.972Z,11.64
2023-10-26T20:27:38.949Z,11.60
2023-10-26T20:30:06.609Z,11.44
2023-10-26T20:32:35.427Z,11.69
2023-10-26T20:35:02.317Z,11.88
2023-10-26T20:37:29.192Z,11.80
2023-10-26T20:39:55.879Z,11.94
2023-10-26T20:42:22.547Z,12.16
2023-10-26T20:44:49.051Z,12.23
2023-10-26T20:47:15.519Z,12.12
2023-10-26T20:49:42.117Z,11.82
2023-10-26T20:52:15.923Z,11.91
2023-10-26T20:54:42.393Z,11.67
2023-10-26T20:57:08.881Z,11.70
2023-10-26T20:59:40.318Z,11.92
2023-10-26T21:02:06.889Z,11.97
2023-10-26T21:04:33.413Z,12.03
2023-10-26T21:07:00.225Z,12.04
2023-10-26T21:09:26.839Z,11.49
2023-10-26T21:11:53.327Z,11.77
2023-10-26T21:14:19.803Z,11.93
2023-10-26T21:16:46.310Z,12.01
2023-10-26T21:19:12.959Z,12.00
2023-10-26T21:21:39.386Z,12.04
2023-10-26T21:24:06.596Z,11.81
2023-10-26T21:26:33.180Z,11.70
2023-10-26T21:29:00.174Z,12.03
2023-10-26T21:31:26.852Z,12.13
2023-10-26T21:33:54.957Z,12.04
2023-10-26T21:36:21.711Z,11.77
2023-10-26T21:38:51.218Z,11.77
2023-10-26T21:41:17.676Z,11.81
2023-10-26T21:43:44.619Z,12.06
2023-10-26T21:46:11.390Z,11.73
2023-10-26T21:48:37.903Z,12.19
2023-10-26T21:51:08.902Z,12.07
2023-10-26T21:53:35.339Z,12.13
2023-10-26T21:56:04.111Z,11.80
2023-10-26T21:58:30.754Z,11.74
2023-10-26T22:00:57.275Z,12.15
2023-10-26T22:03:23.804Z,12.24
2023-10-26T22:05:50.693Z,12.19
2023-10-26T22:08:17.180Z,12.02
2023-10-26T22:10:43.718Z,12.00
2023-10-26T22:13:10.367Z,11.69
2023-10-26T22:15:36.870Z,11.81
2023-10-26T22:18:03.513Z,11.92
2023-10-26T22:20:30.080Z,11.74
2023-10-26T22:22:56.931Z,11.63
2023-10-26T22:25:23.524Z,11.48
2023-10-26T22:27:50.093Z,11.54
2023-10-26T22:30:16.577Z,11.40
2023-10-26T22:32:44.443Z,11.67
2023-10-26T22:35:11.784Z,11.78
2023-10-26T22:37:39.310Z,11.66
2023-10-26T22:40:08.307Z,11.80
2023-10-26T22:42:35.201Z,11.42
2023-10-26T22:45:02.602Z,11.36
2023-10-26T22:47:32.078Z,11.54
2023-10-26T22:49:58.678Z,11.82
2023-10-26T22:52:25.227Z,11.80
2023-10-26T22:54:52.689Z,11.73
2023-10-26T22:57:19.112Z,11.55
2023-10-26T22:59:49.069Z,11.49
2023-10-26T23:02:15.620Z,11.63
2023-10-26T23:04:43.164Z,11.44
2023-10-26T23:07:09.915Z,11.25
2023-10-26T23:09:36.747Z,11.56
2023-10-26T23:12:03.766Z,11.50
2023-10-26T23:14:31.556Z,11.70
2023-10-26T23:16:58.495Z,11.73
2023-10-26T23:19:25.377Z,11.87
2023-10-26T23:21:52.180Z,11.83
2023-10-26T23:24:18.764Z,11.59
2023-10-26T23:26:45.234Z,11.51
2023-10-26T23:29:11.745Z,11.42
2023-10-26T23:31:38.203Z,11.67
2023-10-26T23:34:05.152Z,11.78
2023-10-26T23:36:31.637Z,11.77
2023-10-26T23:38:58.334Z,11.77
2023-10-26T23:41:25.289Z,11.49
2023-10-26T23:43:55.395Z,11.59
2023-10-26T23:46:21.857Z,11.46
2023-10-26T23:48:48.391Z,11.67
2023-10-26T23:51:15.207Z,11.41
2023-10-26T23:53:41.645Z,11.71
2023-10-26T23:56:10.826Z,11.29
2023-10-26T23:58:37.319Z,11.07
